createdAt,value
2017-09-30T00:00:53.112Z,13.80
2017-09-30T00:03:20.591Z,16.80
2017-09-30T00:05:48.062Z,22.23
2017-09-30T00:08:15.543Z,10.87
2017-09-30T00:10:43.010Z,10.57
2017-09-30T00:13:10.517Z,10.90
2017-09-30T00:15:37.984Z,11.00
2017-09-30T00:18:05.533Z,9.93
2017-09-30T00:20:32.997Z,11.80
2017-09-30T00:23:00.565Z,9.67
2017-09-30T00:25:28.111Z,11.10
2017-09-30T00:27:55.593Z,9.33
2017-09-30T00:30:23.141Z,14.83
2017-09-30T00:32:50.691Z,10.90
2017-09-30T00:35:18.162Z,13.20
2017-09-30T00:37:45.710Z,11.37
2017-09-30T00:40:13.192Z,12.60
2017-09-30T00:42:40.648Z,12.83
2017-09-30T00:45:08.173Z,10.40
2017-09-30T00:47:35.636Z,10.90
2017-09-30T00:50:03.192Z,12.67
2017-09-30T00:52:30.655Z,11.33
2017-09-30T00:54:58.149Z,12.33
2017-09-30T00:57:25.666Z,18.40
2017-09-30T00:59:53.229Z,12.90
2017-09-30T01:02:20.689Z,12.67
2017-09-30T01:04:48.159Z,14.53
2017-09-30T01:07:15.635Z,13.17
2017-09-30T01:09:43.113Z,12.47
2017-09-30T01:12:10.594Z,11.50
2017-09-30T01:14:38.107Z,12.37
2017-09-30T01:17:05.606Z,11.67
2017-09-30T01:19:33.075Z,13.70
2017-09-30T01:22:00.569Z,16.03
2017-09-30T01:24:28.043Z,14.67
2017-09-30T01:26:55.541Z,11.10
2017-09-30T01:29:23.012Z,12.97
2017-09-30T01:31:50.507Z,15.00
2017-09-30T01:34:17.963Z,13.10
2017-09-30T01:36:45.449Z,14.27
2017-09-30T01:39:12.927Z,11.77
2017-09-30T01:41:40.425Z,12.10
2017-09-30T01:44:07.898Z,16.03
2017-09-30T01:46:35.368Z,11.93
2017-09-30T01:49:02.856Z,11.17
2017-09-30T01:51:30.414Z,15.90
2017-09-30T01:53:57.910Z,13.47
2017-09-30T01:56:25.393Z,15.80
2017-09-30T01:58:52.888Z,11.63
2017-09-30T02:01:20.352Z,13.40
2017-09-30T02:03:47.868Z,14.03
2017-09-30T02:06:15.328Z,12.40
2017-09-30T02:08:42.921Z,13.07
2017-09-30T02:11:10.499Z,13.23
2017-09-30T02:13:37.977Z,23.23
2017-09-30T02:16:05.457Z,14.40
2017-09-30T02:18:32.963Z,12.67
2017-09-30T02:21:00.501Z,15.53
2017-09-30T02:23:28.012Z,16.73
2017-09-30T02:25:55.479Z,14.67
2017-09-30T02:28:22.968Z,18.53
2017-09-30T02:30:50.549Z,13.03
2017-09-30T02:33:18.020Z,13.10
2017-09-30T02:35:45.866Z,17.00
2017-09-30T02:38:13.429Z,12.63
2017-09-30T02:40:40.989Z,15.03
2017-09-30T02:43:08.535Z,14.07
2017-09-30T02:45:36.105Z,19.57
2017-09-30T02:48:03.560Z,15.50
2017-09-30T02:50:31.113Z,18.00
2017-09-30T02:52:58.692Z,13.53
2017-09-30T02:55:26.180Z,13.50
2017-09-30T02:57:53.649Z,14.30
2017-09-30T03:00:21.139Z,19.00
2017-09-30T03:02:48.595Z,14.70
2017-09-30T03:05:16.104Z,15.50
2017-09-30T03:07:43.575Z,22.70
2017-09-30T03:10:11.080Z,21.57
2017-09-30T03:12:38.551Z,15.03
2017-09-30T03:15:06.093Z,16.40
2017-09-30T03:17:33.646Z,30.83
2017-09-30T03:20:01.199Z,21.60
2017-09-30T03:22:28.773Z,21.53
2017-09-30T03:24:56.246Z,14.20
2017-09-30T03:27:23.740Z,15.70
2017-09-30T03:29:51.210Z,24.73
2017-09-30T03:32:18.701Z,14.13
2017-09-30T03:34:46.162Z,21.13
2017-09-30T03:37:13.635Z,15.03
2017-09-30T03:39:41.088Z,13.00
2017-09-30T03:42:08.629Z,13.20
2017-09-30T03:44:36.093Z,15.10
2017-09-30T03:47:03.580Z,12.43
2017-09-30T03:49:31.039Z,17.40
2017-09-30T03:51:58.512Z,16.80
2017-09-30T03:54:25.976Z,14.33
2017-09-30T03:56:53.460Z,16.23
2017-09-30T03:59:20.929Z,12.97
2017-09-30T04:01:48.401Z,12.80
2017-09-30T04:04:15.889Z,16.60
2017-09-30T04:06:43.384Z,13.37
2017-09-30T04:09:10.894Z,16.57
2017-09-30T04:11:38.361Z,13.47
2017-09-30T04:14:05.841Z,17.07
2017-09-30T04:16:33.331Z,20.93
2017-09-30T04:19:00.815Z,24.20
2017-09-30T04:21:28.346Z,19.33
2017-09-30T04:23:55.901Z,12.57
2017-09-30T04:26:23.457Z,15.90
2017-09-30T04:28:51.133Z,16.10
2017-09-30T04:31:18.612Z,12.50
2017-09-30T04:33:46.238Z,17.60
2017-09-30T04:36:13.700Z,18.90
2017-09-30T04:38:41.171Z,14.37
2017-09-30T04:41:08.634Z,24.00
2017-09-30T04:43:36.145Z,25.93
2017-09-30T04:46:03.612Z,12.93
2017-09-30T04:48:31.181Z,22.73
2017-09-30T04:50:58.738Z,23.87
2017-09-30T04:53:26.209Z,18.50
2017-09-30T04:55:53.754Z,16.27
2017-09-30T04:58:21.207Z,19.87
2017-09-30T05:00:48.692Z,25.70
2017-09-30T05:03:16.214Z,19.03
2017-09-30T05:05:43.893Z,18.17
2017-09-30T05:08:11.441Z,15.93
2017-09-30T05:10:38.932Z,19.57
2017-09-30T05:13:06.449Z,25.30
2017-09-30T05:15:33.909Z,22.00
2017-09-30T05:18:01.402Z,20.97
2017-09-30T05:20:28.869Z,16.03
2017-09-30T05:22:56.347Z,20.77
2017-09-30T05:25:23.820Z,18.67
2017-09-30T05:27:51.318Z,24.67
2017-09-30T05:30:18.777Z,25.93
2017-09-30T05:32:46.302Z,22.37
2017-09-30T05:35:13.779Z,17.10
2017-09-30T05:37:41.331Z,17.40
2017-09-30T05:40:08.795Z,17.10
2017-09-30T05:42:36.288Z,17.93
2017-09-30T05:45:03.795Z,15.63
2017-09-30T05:47:31.389Z,27.23
2017-09-30T05:49:58.852Z,24.00
2017-09-30T05:52:26.419Z,24.10
2017-09-30T05:54:53.931Z,17.07
2017-09-30T05:57:21.404Z,17.07
2017-09-30T05:59:48.899Z,25.10
2017-09-30T06:02:16.367Z,31.73
2017-09-30T06:04:43.965Z,26.53
2017-09-30T06:07:11.528Z,22.90
2017-09-30T06:09:39.023Z,27.13
2017-09-30T06:12:06.506Z,24.13
2017-09-30T06:14:33.991Z,19.23
2017-09-30T06:17:01.448Z,16.47
2017-09-30T06:19:29.213Z,24.23
2017-09-30T06:21:56.689Z,19.17
2017-09-30T06:24:24.223Z,24.90
2017-09-30T06:26:51.716Z,27.73
2017-09-30T06:29:19.193Z,21.50
2017-09-30T06:31:46.695Z,19.27
2017-09-30T06:34:14.163Z,17.77
2017-09-30T06:36:41.659Z,19.23
2017-09-30T06:39:09.172Z,18.90
2017-09-30T06:41:36.667Z,17.17
2017-09-30T06:44:04.129Z,25.23
2017-09-30T06:46:31.616Z,15.33
2017-09-30T06:48:59.101Z,16.93
2017-09-30T06:51:26.605Z,19.87
2017-09-30T06:53:54.068Z,16.33
2017-09-30T06:56:21.547Z,15.27
2017-09-30T06:58:49.037Z,21.00
2017-09-30T07:01:16.499Z,20.60
2017-09-30T07:03:43.980Z,14.93
2017-09-30T07:06:11.445Z,15.63
2017-09-30T07:08:38.961Z,15.40
2017-09-30T07:11:06.415Z,15.67
2017-09-30T07:13:33.965Z,15.60
2017-09-30T07:16:01.424Z,16.30
2017-09-30T07:18:28.909Z,18.60
2017-09-30T07:20:56.408Z,15.10
2017-09-30T07:23:23.902Z,16.70
2017-09-30T07:25:51.379Z,19.50
2017-09-30T07:28:18.908Z,15.20
2017-09-30T07:30:46.371Z,16.87
2017-09-30T07:33:13.855Z,19.50
2017-09-30T07:35:41.341Z,23.20
2017-09-30T07:38:08.807Z,19.57
2017-09-30T07:40:36.339Z,25.77
2017-09-30T07:43:03.860Z,17.83
2017-09-30T07:45:31.343Z,23.90
2017-09-30T07:47:58.799Z,21.37
2017-09-30T07:50:26.279Z,25.37
2017-09-30T07:52:53.731Z,21.97
2017-09-30T07:55:21.252Z,21.80
2017-09-30T07:57:48.728Z,29.93
2017-09-30T08:00:16.262Z,28.03
2017-09-30T08:02:43.825Z,25.90
2017-09-30T08:05:11.381Z,24.33
2017-09-30T08:07:38.927Z,35.53
2017-09-30T08:10:07.108Z,27.20
2017-09-30T08:12:34.597Z,25.17
2017-09-30T08:15:02.048Z,32.00
2017-09-30T08:17:29.562Z,27.23
2017-09-30T08:19:57.037Z,48.20
2017-09-30T08:22:24.529Z,26.40
2017-09-30T08:24:51.993Z,34.63
2017-09-30T08:27:19.489Z,29.60
2017-09-30T08:29:47.023Z,34.97
2017-09-30T08:32:14.499Z,30.20
2017-09-30T08:34:41.955Z,37.50
2017-09-30T08:37:09.490Z,31.87
2017-09-30T08:39:36.962Z,34.10
2017-09-30T08:42:04.458Z,36.23
2017-09-30T08:44:31.953Z,41.27
2017-09-30T08:46:59.412Z,31.00
2017-09-30T08:49:26.898Z,27.47
2017-09-30T08:51:54.369Z,41.00
2017-09-30T08:54:21.851Z,34.57
2017-09-30T08:56:49.387Z,33.00
2017-09-30T08:59:16.873Z,34.70
2017-09-30T09:01:44.341Z,31.47
2017-09-30T09:04:11.818Z,37.93
2017-09-30T09:06:39.319Z,42.93
2017-09-30T09:09:06.859Z,35.73
2017-09-30T09:11:34.316Z,38.10
2017-09-30T09:14:01.804Z,31.30
2017-09-30T09:16:29.269Z,32.50
2017-09-30T09:18:56.770Z,32.53
2017-09-30T09:21:24.251Z,29.70
2017-09-30T09:23:51.820Z,31.70
2017-09-30T09:26:19.299Z,38.23
2017-09-30T09:28:46.834Z,40.43
2017-09-30T09:31:14.321Z,38.80
2017-09-30T09:33:41.780Z,28.70
2017-09-30T09:36:09.274Z,28.20
2017-09-30T09:38:36.731Z,28.00
2017-09-30T09:41:04.208Z,31.87
2017-09-30T09:43:31.690Z,30.13
2017-09-30T09:45:59.233Z,29.30
2017-09-30T09:48:26.792Z,28.97
2017-09-30T09:50:54.256Z,27.60
2017-09-30T09:53:21.911Z,30.83
2017-09-30T09:55:49.382Z,36.70
2017-09-30T09:58:16.859Z,31.60
2017-09-30T10:00:44.320Z,33.73
2017-09-30T10:03:11.804Z,31.20
2017-09-30T10:05:39.264Z,33.30
2017-09-30T10:08:06.866Z,34.27
2017-09-30T10:10:34.324Z,32.80
2017-09-30T10:13:01.983Z,32.63
2017-09-30T10:15:29.452Z,37.57
2017-09-30T10:17:56.915Z,25.50
2017-09-30T10:20:24.397Z,24.77
2017-09-30T10:22:51.894Z,25.30
2017-09-30T10:25:19.372Z,27.20
2017-09-30T10:27:46.929Z,23.00
2017-09-30T10:30:14.421Z,27.90
2017-09-30T10:32:41.895Z,26.00
2017-09-30T10:35:08.671Z,25.27
2017-09-30T10:37:36.127Z,23.80
2017-09-30T10:40:03.612Z,25.20
2017-09-30T10:42:31.075Z,30.00
2017-09-30T10:44:58.573Z,23.27
2017-09-30T10:47:26.061Z,26.73
2017-09-30T10:49:53.552Z,21.70
2017-09-30T10:52:21.007Z,22.93
2017-09-30T10:54:48.459Z,28.60
2017-09-30T10:57:15.948Z,24.57
2017-09-30T10:59:43.403Z,22.77
2017-09-30T11:02:10.894Z,32.87
2017-09-30T11:04:38.352Z,24.53
2017-09-30T11:07:05.840Z,29.57
2017-09-30T11:09:33.295Z,33.20
2017-09-30T11:12:00.840Z,31.90
2017-09-30T11:14:28.302Z,26.00
2017-09-30T11:16:55.771Z,29.33
2017-09-30T11:19:23.235Z,21.30
2017-09-30T11:21:50.747Z,22.33
2017-09-30T11:24:18.200Z,18.70
2017-09-30T11:26:45.768Z,17.43
2017-09-30T11:29:13.222Z,19.43
2017-09-30T11:31:40.711Z,20.27
2017-09-30T11:34:08.177Z,20.17
2017-09-30T11:36:35.638Z,23.63
2017-09-30T11:39:03.124Z,19.10
2017-09-30T11:41:30.585Z,19.37
2017-09-30T11:43:58.174Z,25.90
2017-09-30T11:46:25.737Z,20.53
2017-09-30T11:48:53.284Z,23.57
2017-09-30T11:51:20.753Z,22.67
2017-09-30T11:53:48.246Z,16.40
2017-09-30T11:56:15.716Z,17.30
2017-09-30T11:58:43.221Z,19.10
2017-09-30T12:01:10.699Z,24.70
2017-09-30T12:03:38.183Z,22.53
2017-09-30T12:06:05.708Z,17.77
2017-09-30T12:08:33.257Z,23.67
2017-09-30T12:11:00.710Z,21.00
2017-09-30T12:13:28.172Z,21.73
2017-09-30T12:15:55.665Z,21.47
2017-09-30T12:18:23.137Z,21.73
2017-09-30T12:20:50.615Z,19.33
2017-09-30T12:23:18.080Z,21.83
2017-09-30T12:25:45.572Z,30.73
2017-09-30T12:28:13.047Z,23.00
2017-09-30T12:30:40.523Z,16.17
2017-09-30T12:33:07.980Z,19.23
2017-09-30T12:35:35.581Z,16.60
2017-09-30T12:38:03.046Z,17.93
2017-09-30T12:40:30.595Z,15.77
2017-09-30T12:42:58.072Z,20.30
2017-09-30T12:45:25.569Z,15.60
2017-09-30T12:47:53.023Z,14.37
2017-09-30T12:50:20.515Z,12.83
2017-09-30T12:52:48.032Z,12.67
2017-09-30T12:55:15.547Z,11.50
2017-09-30T12:57:43.083Z,7.97
2017-09-30T13:00:10.548Z,6.00
2017-09-30T13:02:38.099Z,2.73
2017-09-30T13:05:05.539Z,4.57
2017-09-30T13:07:33.029Z,3.40
2017-09-30T13:10:00.587Z,3.57
2017-09-30T13:12:28.073Z,1.03
2017-09-30T13:14:55.528Z,0.90
2017-09-30T13:17:23.047Z,2.40
2017-09-30T13:19:50.613Z,3.57
2017-09-30T13:22:18.101Z,4.83
2017-09-30T13:24:45.576Z,1.20
2017-09-30T13:27:13.077Z,1.00
2017-09-30T13:29:40.524Z,0.80
2017-09-30T13:32:07.985Z,0.90
2017-09-30T13:34:35.463Z,2.60
2017-09-30T13:37:02.931Z,1.83
2017-09-30T13:39:30.433Z,1.70
2017-09-30T13:41:57.880Z,1.43
2017-09-30T13:44:25.349Z,1.40
2017-09-30T13:46:52.830Z,3.13
2017-09-30T13:49:20.309Z,1.10
2017-09-30T13:51:47.766Z,1.50
2017-09-30T13:54:15.239Z,8.13
2017-09-30T13:56:42.700Z,3.40
2017-09-30T13:59:10.211Z,2.30
2017-09-30T14:01:37.810Z,1.47
2017-09-30T14:04:05.332Z,1.73
2017-09-30T14:06:32.789Z,5.63
2017-09-30T14:09:00.254Z,1.10
2017-09-30T14:11:27.733Z,3.87
2017-09-30T14:13:55.275Z,2.70
2017-09-30T14:16:22.748Z,1.00
2017-09-30T14:18:50.203Z,3.13
2017-09-30T14:21:17.750Z,3.47
2017-09-30T14:23:45.214Z,1.23
2017-09-30T14:26:12.713Z,7.10
2017-09-30T14:28:40.165Z,2.73
2017-09-30T14:31:07.668Z,3.40
2017-09-30T14:33:35.239Z,3.43
2017-09-30T14:36:02.731Z,4.30
2017-09-30T14:38:30.203Z,2.20
2017-09-30T14:40:57.676Z,2.03
2017-09-30T14:43:25.138Z,8.30
2017-09-30T14:45:52.618Z,2.73
2017-09-30T14:48:20.077Z,5.47
2017-09-30T14:50:47.641Z,8.90
2017-09-30T14:53:15.144Z,1.30
2017-09-30T14:55:42.642Z,2.47
2017-09-30T14:58:10.120Z,2.20
2017-09-30T15:00:37.568Z,4.90
2017-09-30T15:03:05.044Z,2.67
2017-09-30T15:05:32.501Z,1.53
2017-09-30T15:07:59.984Z,1.73
2017-09-30T15:10:27.435Z,5.40
2017-09-30T15:12:54.923Z,1.80
2017-09-30T15:15:22.403Z,2.03
2017-09-30T15:17:49.881Z,3.77
2017-09-30T15:20:17.336Z,2.37
2017-09-30T15:22:44.827Z,1.87
2017-09-30T15:25:12.288Z,2.53
2017-09-30T15:27:39.784Z,2.77
2017-09-30T15:30:07.237Z,1.20
2017-09-30T15:32:34.688Z,1.80
2017-09-30T15:35:02.289Z,1.77
2017-09-30T15:37:29.763Z,4.10
2017-09-30T15:39:57.257Z,3.90
2017-09-30T15:42:24.835Z,1.60
2017-09-30T15:44:52.364Z,3.40
2017-09-30T15:47:19.848Z,2.00
2017-09-30T15:49:47.405Z,1.40
2017-09-30T15:52:14.898Z,1.63
2017-09-30T15:54:42.426Z,2.80
2017-09-30T15:57:09.980Z,3.77
2017-09-30T15:59:37.480Z,3.53
2017-09-30T16:02:04.934Z,3.43
2017-09-30T16:04:32.454Z,2.03
2017-09-30T16:06:59.907Z,4.03
2017-09-30T16:09:27.497Z,3.70
2017-09-30T16:11:54.963Z,7.73
2017-09-30T16:14:22.422Z,9.93
2017-09-30T16:16:49.909Z,3.40
2017-09-30T16:19:17.383Z,4.10
2017-09-30T16:21:44.953Z,4.33
2017-09-30T16:24:12.413Z,1.57
2017-09-30T16:26:39.888Z,1.87
2017-09-30T16:29:07.340Z,2.40
2017-09-30T16:31:34.808Z,4.23
2017-09-30T16:34:02.259Z,1.60
2017-09-30T16:36:29.807Z,3.10
2017-09-30T16:38:57.265Z,7.63
2017-09-30T16:41:24.787Z,10.60
2017-09-30T16:43:52.369Z,4.30
2017-09-30T16:46:19.833Z,1.70
2017-09-30T16:48:47.303Z,4.17
2017-09-30T16:51:14.832Z,1.80
2017-09-30T16:53:42.312Z,2.60
2017-09-30T16:56:09.781Z,10.97
2017-09-30T16:58:37.276Z,5.77
2017-09-30T17:01:04.742Z,3.00
2017-09-30T17:03:32.214Z,3.30
2017-09-30T17:05:59.813Z,4.37
2017-09-30T17:08:27.334Z,3.17
2017-09-30T17:10:54.787Z,3.40
2017-09-30T17:13:22.347Z,2.27
2017-09-30T17:15:49.795Z,3.20
2017-09-30T17:18:17.264Z,8.40
2017-09-30T17:20:44.820Z,3.73
2017-09-30T17:23:12.385Z,4.90
2017-09-30T17:25:39.869Z,3.87
2017-09-30T17:28:07.397Z,5.30
2017-09-30T17:30:34.880Z,2.77
2017-09-30T17:33:02.413Z,2.90
2017-09-30T17:35:29.889Z,5.20
2017-09-30T17:37:57.409Z,2.37
2017-09-30T17:40:24.888Z,2.20
2017-09-30T17:42:52.352Z,3.10
2017-09-30T17:45:19.852Z,3.30
2017-09-30T17:47:47.316Z,6.70
2017-09-30T17:50:14.807Z,2.77
2017-09-30T17:52:42.285Z,2.27
2017-09-30T17:55:09.733Z,1.60
2017-09-30T17:57:37.213Z,1.90
2017-09-30T18:00:04.679Z,2.70
2017-09-30T18:02:32.157Z,6.20
2017-09-30T18:04:59.653Z,2.63
2017-09-30T18:07:27.140Z,5.10
2017-09-30T18:09:54.663Z,2.47
2017-09-30T18:12:22.130Z,3.43
2017-09-30T18:14:49.688Z,3.57
2017-09-30T18:17:17.160Z,3.60
2017-09-30T18:19:44.701Z,2.07
2017-09-30T18:22:12.262Z,1.73
2017-09-30T18:24:39.745Z,1.63
2017-09-30T18:27:07.220Z,2.87
2017-09-30T18:29:34.697Z,3.57
2017-09-30T18:32:03.209Z,2.40
2017-09-30T18:34:30.755Z,4.00
2017-09-30T18:36:58.205Z,2.43
2017-09-30T18:39:25.784Z,5.00
2017-09-30T18:41:53.240Z,4.47
2017-09-30T18:44:20.801Z,1.70
2017-09-30T18:46:48.252Z,1.70
2017-09-30T18:49:15.717Z,3.07
2017-09-30T18:51:43.190Z,7.33
2017-09-30T18:54:10.635Z,2.40
2017-09-30T18:56:38.111Z,6.73
2017-09-30T18:59:05.628Z,3.20
2017-09-30T19:01:33.112Z,1.70
2017-09-30T19:04:00.574Z,1.60
2017-09-30T19:06:28.108Z,2.70
2017-09-30T19:08:55.667Z,1.30
2017-09-30T19:11:23.133Z,2.70
2017-09-30T19:13:50.681Z,1.90
2017-09-30T19:16:18.159Z,2.20
2017-09-30T19:18:45.698Z,2.10
2017-09-30T19:21:13.164Z,2.03
2017-09-30T19:23:40.641Z,3.73
2017-09-30T19:26:08.174Z,4.67
2017-09-30T19:28:35.653Z,3.50
2017-09-30T19:31:03.107Z,2.10
2017-09-30T19:33:30.654Z,4.83
2017-09-30T19:35:58.109Z,1.60
2017-09-30T19:38:25.579Z,9.83
2017-09-30T19:40:53.046Z,19.63
2017-09-30T19:43:20.590Z,27.33
2017-09-30T19:45:48.048Z,17.20
2017-09-30T19:48:15.590Z,15.93
2017-09-30T19:50:43.055Z,4.87
2017-09-30T19:53:10.537Z,5.10
2017-09-30T19:55:37.988Z,3.90
2017-09-30T19:58:05.443Z,5.47
2017-09-30T20:00:32.926Z,4.20
2017-09-30T20:03:00.382Z,3.23
2017-09-30T20:05:27.868Z,2.37
2017-09-30T20:07:55.337Z,2.93
2017-09-30T20:10:22.899Z,2.57
2017-09-30T20:12:50.478Z,8.07
2017-09-30T20:15:17.958Z,1.47
2017-09-30T20:17:45.415Z,1.87
2017-09-30T20:20:12.965Z,4.40
2017-09-30T20:22:40.497Z,2.20
2017-09-30T20:25:08.059Z,3.93
2017-09-30T20:27:35.610Z,4.30
2017-09-30T20:30:03.057Z,2.97
2017-09-30T20:32:30.625Z,3.70
2017-09-30T20:34:58.104Z,2.30
2017-09-30T20:37:25.593Z,2.73
2017-09-30T20:39:53.100Z,2.73
2017-09-30T20:42:20.654Z,3.50
2017-09-30T20:44:48.103Z,4.20
2017-09-30T20:47:15.577Z,3.10
2017-09-30T20:49:43.125Z,4.73
2017-09-30T20:52:10.590Z,3.83
2017-09-30T20:54:38.134Z,3.40
2017-09-30T20:57:05.613Z,3.47
2017-09-30T20:59:33.063Z,2.93
2017-09-30T21:02:00.613Z,2.60
2017-09-30T21:04:28.059Z,3.50
2017-09-30T21:06:55.651Z,5.23
2017-09-30T21:09:23.113Z,4.43
2017-09-30T21:11:50.648Z,7.07
2017-09-30T21:14:18.108Z,4.70
2017-09-30T21:16:45.652Z,4.53
2017-09-30T21:19:13.099Z,5.57
2017-09-30T21:21:40.553Z,8.27
2017-09-30T21:24:08.028Z,4.50
2017-09-30T21:26:35.488Z,3.63
2017-09-30T21:29:02.974Z,4.20
2017-09-30T21:31:30.427Z,4.30
2017-09-30T21:33:57.915Z,5.93
2017-09-30T21:36:25.406Z,5.00
2017-09-30T21:38:52.904Z,10.13
2017-09-30T21:41:20.441Z,4.63
2017-09-30T21:43:47.926Z,4.90
2017-09-30T21:46:15.386Z,5.37
2017-09-30T21:48:42.892Z,4.40
2017-09-30T21:51:10.465Z,4.43
2017-09-30T21:53:37.926Z,4.67
2017-09-30T21:56:05.467Z,7.87
2017-09-30T21:58:32.935Z,4.67
2017-09-30T22:01:00.394Z,4.10
2017-09-30T22:03:27.866Z,4.60
2017-09-30T22:05:55.381Z,5.10
2017-09-30T22:08:22.851Z,4.70
2017-09-30T22:10:50.319Z,4.60
2017-09-30T22:13:17.807Z,3.73
2017-09-30T22:15:45.285Z,3.57
2017-09-30T22:18:12.743Z,8.70
2017-09-30T22:20:40.235Z,4.17
2017-09-30T22:23:07.704Z,10.13
2017-09-30T22:25:35.188Z,5.10
2017-09-30T22:28:02.686Z,4.87
2017-09-30T22:30:30.174Z,4.27
2017-09-30T22:32:57.729Z,5.47
2017-09-30T22:35:25.209Z,2.80
2017-09-30T22:37:52.697Z,4.47
2017-09-30T22:40:20.177Z,4.23
2017-09-30T22:42:47.633Z,4.87
2017-09-30T22:45:15.084Z,12.60
2017-09-30T22:47:42.577Z,5.93
2017-09-30T22:50:10.109Z,5.80
2017-09-30T22:52:37.582Z,7.50
2017-09-30T22:55:05.028Z,3.90
2017-09-30T22:57:32.595Z,10.17
2017-09-30T23:00:00.054Z,3.43
2017-09-30T23:02:27.544Z,7.83
2017-09-30T23:04:55.066Z,5.00
2017-09-30T23:07:22.530Z,4.07
2017-09-30T23:09:49.995Z,3.00
2017-09-30T23:12:17.540Z,3.73
2017-09-30T23:14:45.098Z,2.87
2017-09-30T23:17:12.578Z,6.07
2017-09-30T23:19:40.112Z,7.63
2017-09-30T23:22:07.568Z,5.43
2017-09-30T23:24:35.041Z,4.43
2017-09-30T23:27:02.584Z,3.40
2017-09-30T23:29:30.155Z,7.40
2017-09-30T23:31:57.656Z,4.43
2017-09-30T23:34:25.120Z,3.23
2017-09-30T23:36:52.597Z,5.03
2017-09-30T23:39:20.077Z,6.57
2017-09-30T23:41:47.555Z,4.47
2017-09-30T23:44:15.052Z,4.83
2017-09-30T23:46:42.539Z,3.13
2017-09-30T23:49:10.012Z,3.60
2017-09-30T23:51:37.469Z,2.90
2017-09-30T23:54:05.024Z,4.23
2017-09-30T23:56:32.515Z,7.13
2017-09-30T23:58:59.980Z,4.50
